sensor_id;sensor_type;location;lat;lon;timestamp;pressure;altitude;pressure_sealevel;temperature;humidity
19023;BME280;35226;48.606;8.858;2022-11-15T00:01:52;96051.81;;;8.02;100.00
19023;BME280;35226;48.606;8.858;2022-11-15T00:04:36;96049.22;;;8.11;100.00
19023;BME280;35226;48.606;8.858;2022-11-15T00:07:20;96048.09;;;8.09;100.00
19023;BME280;35226;48.606;8.858;2022-11-15T00:10:04;96044.72;;;7.72;100.00
19023;BME280;35226;48.606;8.858;2022-11-15T00:12:48;96051.25;;;7.78;100.00
19023;BME280;35226;48.606;8.858;2022-11-15T00:15:40;96042.25;;;8.07;100.00
19023;BME280;35226;48.606;8.858;2022-11-15T00:18:25;96040.50;;;7.68;100.00
19023;BME280;35226;48.606;8.858;2022-11-15T00:21:11;96041.19;;;7.88;100.00
19023;BME280;35226;48.606;8.858;2022-11-15T00:23:55;96046.44;;;7.66;100.00
19023;BME280;35226;48.606;8.858;2022-11-15T00:26:40;96041.38;;;7.32;100.00
19023;BME280;35226;48.606;8.858;2022-11-15T00:29:24;96045.22;;;7.67;100.00
19023;BME280;35226;48.606;8.858;2022-11-15T00:32:11;96028.91;;;7.76;100.00
19023;BME280;35226;48.606;8.858;2022-11-15T00:34:55;96036.63;;;7.65;100.00
19023;BME280;35226;48.606;8.858;2022-11-15T00:37:40;96035.44;;;7.50;100.00
19023;BME280;35226;48.606;8.858;2022-11-15T00:40:23;96026.34;;;7.53;100.00
19023;BME280;35226;48.606;8.858;2022-11-15T00:43:07;96029.78;;;7.41;100.00
19023;BME280;35226;48.606;8.858;2022-11-15T00:45:51;96033.38;;;7.38;100.00
19023;BME280;35226;48.606;8.858;2022-11-15T00:48:36;96036.97;;;7.35;100.00
19023;BME280;35226;48.606;8.858;2022-11-15T00:51:20;96030.03;;;7.30;100.00
19023;BME280;35226;48.606;8.858;2022-11-15T00:54:04;96025.03;;;7.25;100.00
19023;BME280;35226;48.606;8.858;2022-11-15T00:56:48;96023.06;;;7.10;100.00
19023;BME280;35226;48.606;8.858;2022-11-15T00:59:32;96017.38;;;7.17;100.00
19023;BME280;35226;48.606;8.858;2022-11-15T01:02:16;96018.84;;;7.05;100.00
19023;BME280;35226;48.606;8.858;2022-11-15T01:05:00;96020.50;;;7.19;100.00
19023;BME280;35226;48.606;8.858;2022-11-15T01:07:44;96028.13;;;7.11;100.00
19023;BME280;35226;48.606;8.858;2022-11-15T01:10:28;96015.84;;;7.16;100.00
19023;BME280;35226;48.606;8.858;2022-11-15T01:13:12;96014.56;;;7.20;100.00
19023;BME280;35226;48.606;8.858;2022-11-15T01:15:56;96014.78;;;6.93;100.00
19023;BME280;35226;48.606;8.858;2022-11-15T01:18:40;96005.38;;;7.11;100.00
19023;BME280;35226;48.606;8.858;2022-11-15T01:21:24;96007.94;;;7.18;100.00
19023;BME280;35226;48.606;8.858;2022-11-15T01:24:12;96000.91;;;7.17;100.00
19023;BME280;35226;48.606;8.858;2022-11-15T01:26:56;95991.47;;;7.18;100.00
19023;BME280;35226;48.606;8.858;2022-11-15T01:29:40;95995.34;;;7.20;100.00
19023;BME280;35226;48.606;8.858;2022-11-15T01:32:24;95989.91;;;7.17;100.00
19023;BME280;35226;48.606;8.858;2022-11-15T01:35:08;95986.31;;;7.03;100.00
19023;BME280;35226;48.606;8.858;2022-11-15T01:37:52;95990.09;;;7.10;100.00
19023;BME280;35226;48.606;8.858;2022-11-15T01:40:36;95995.09;;;7.15;100.00
19023;BME280;35226;48.606;8.858;2022-11-15T01:43:32;95982.38;;;7.04;100.00
19023;BME280;35226;48.606;8.858;2022-11-15T01:46:49;95991.28;;;7.09;100.00
19023;BME280;35226;48.606;8.858;2022-11-15T01:49:35;95987.69;;;7.12;100.00
19023;BME280;35226;48.606;8.858;2022-11-15T01:52:24;95981.44;;;7.11;100.00
19023;BME280;35226;48.606;8.858;2022-11-15T01:55:24;95979.41;;;6.95;100.00
19023;BME280;35226;48.606;8.858;2022-11-15T01:58:11;95986.03;;;6.98;100.00
19023;BME280;35226;48.606;8.858;2022-11-15T02:00:55;95980.41;;;7.05;100.00
19023;BME280;35226;48.606;8.858;2022-11-15T02:03:59;95971.38;;;7.04;100.00
19023;BME280;35226;48.606;8.858;2022-11-15T02:06:46;95960.81;;;7.03;100.00
19023;BME280;35226;48.606;8.858;2022-11-15T02:09:30;95960.13;;;6.99;100.00
19023;BME280;35226;48.606;8.858;2022-11-15T02:12:17;95959.09;;;7.09;100.00
19023;BME280;35226;48.606;8.858;2022-11-15T02:15:04;95961.41;;;7.11;100.00
19023;BME280;35226;48.606;8.858;2022-11-15T02:18:08;95960.06;;;7.02;100.00
19023;BME280;35226;48.606;8.858;2022-11-15T02:33:35;95939.69;;;7.00;100.00
19023;BME280;35226;48.606;8.858;2022-11-15T02:39:38;95926.06;;;7.13;100.00
19023;BME280;35226;48.606;8.858;2022-11-15T02:42:26;95937.72;;;7.17;100.00
19023;BME280;35226;48.606;8.858;2022-11-15T02:45:37;95934.31;;;7.13;100.00
19023;BME280;35226;48.606;8.858;2022-11-15T02:48:23;95934.19;;;7.16;100.00
19023;BME280;35226;48.606;8.858;2022-11-15T02:51:09;95933.88;;;7.14;100.00
19023;BME280;35226;48.606;8.858;2022-11-15T02:53:53;95916.69;;;7.10;100.00
19023;BME280;35226;48.606;8.858;2022-11-15T02:56:37;95912.75;;;7.11;100.00
19023;BME280;35226;48.606;8.858;2022-11-15T02:59:38;95907.69;;;7.10;100.00
19023;BME280;35226;48.606;8.858;2022-11-15T03:11:27;95906.16;;;6.92;100.00
19023;BME280;35226;48.606;8.858;2022-11-15T03:18:09;95898.09;;;7.01;100.00
19023;BME280;35226;48.606;8.858;2022-11-15T03:20:58;95912.41;;;6.93;100.00
19023;BME280;35226;48.606;8.858;2022-11-15T03:23:46;95906.22;;;6.89;100.00
19023;BME280;35226;48.606;8.858;2022-11-15T03:26:32;95895.06;;;6.96;100.00
19023;BME280;35226;48.606;8.858;2022-11-15T03:29:20;95889.06;;;7.01;100.00
19023;BME280;35226;48.606;8.858;2022-11-15T03:32:34;95900.06;;;6.85;100.00
19023;BME280;35226;48.606;8.858;2022-11-15T03:35:22;95902.09;;;6.97;100.00
19023;BME280;35226;48.606;8.858;2022-11-15T03:38:26;95890.53;;;6.89;100.00
19023;BME280;35226;48.606;8.858;2022-11-15T03:41:24;95892.59;;;6.85;100.00
19023;BME280;35226;48.606;8.858;2022-11-15T03:44:20;95893.03;;;6.84;100.00
19023;BME280;35226;48.606;8.858;2022-11-15T03:47:14;95875.94;;;6.92;100.00
19023;BME280;35226;48.606;8.858;2022-11-15T03:50:08;95878.00;;;6.88;100.00
19023;BME280;35226;48.606;8.858;2022-11-15T03:52:54;95871.31;;;6.89;100.00
19023;BME280;35226;48.606;8.858;2022-11-15T03:55:40;95862.81;;;6.84;100.00
19023;BME280;35226;48.606;8.858;2022-11-15T03:58:24;95872.16;;;6.86;100.00
19023;BME280;35226;48.606;8.858;2022-11-15T04:01:08;95869.75;;;6.88;100.00
19023;BME280;35226;48.606;8.858;2022-11-15T04:03:52;95868.22;;;6.87;100.00
19023;BME280;35226;48.606;8.858;2022-11-15T04:06:36;95860.75;;;6.88;100.00
19023;BME280;35226;48.606;8.858;2022-11-15T04:09:20;95877.06;;;6.95;100.00
19023;BME280;35226;48.606;8.858;2022-11-15T04:12:04;95872.00;;;6.93;100.00
19023;BME280;35226;48.606;8.858;2022-11-15T04:14:48;95869.75;;;6.88;100.00
19023;BME280;35226;48.606;8.858;2022-11-15T04:17:55;95862.09;;;6.96;100.00
19023;BME280;35226;48.606;8.858;2022-11-15T04:20:39;95863.06;;;6.89;100.00
19023;BME280;35226;48.606;8.858;2022-11-15T04:23:42;95875.94;;;6.92;100.00
19023;BME280;35226;48.606;8.858;2022-11-15T04:26:45;95870.09;;;6.90;100.00
19023;BME280;35226;48.606;8.858;2022-11-15T04:29:29;95869.31;;;6.90;100.00
19023;BME280;35226;48.606;8.858;2022-11-15T04:32:19;95868.13;;;6.91;100.00
19023;BME280;35226;48.606;8.858;2022-11-15T04:35:03;95862.81;;;6.84;100.00
19023;BME280;35226;48.606;8.858;2022-11-15T04:37:48;95869.31;;;6.90;100.00
19023;BME280;35226;48.606;8.858;2022-11-15T04:40:32;95866.59;;;6.90;100.00
19023;BME280;35226;48.606;8.858;2022-11-15T04:43:15;95864.69;;;6.87;100.00
19023;BME280;35226;48.606;8.858;2022-11-15T04:45:59;95862.03;;;6.83;100.00
19023;BME280;35226;48.606;8.858;2022-11-15T04:48:43;95848.31;;;6.83;100.00
19023;BME280;35226;48.606;8.858;2022-11-15T04:51:27;95840.84;;;6.84;100.00
19023;BME280;35226;48.606;8.858;2022-11-15T04:54:11;95844.38;;;6.84;100.00
19023;BME280;35226;48.606;8.858;2022-11-15T04:56:55;95843.19;;;6.85;100.00
19023;BME280;35226;48.606;8.858;2022-11-15T04:59:39;95851.72;;;6.87;100.00
19023;BME280;35226;48.606;8.858;2022-11-15T05:02:23;95847.44;;;6.86;100.00
19023;BME280;35226;48.606;8.858;2022-11-15T05:05:07;95843.69;;;6.80;100.00
19023;BME280;35226;48.606;8.858;2022-11-15T05:07:51;95833.03;;;6.82;100.00
19023;BME280;35226;48.606;8.858;2022-11-15T05:10:35;95836.81;;;6.88;100.00
19023;BME280;35226;48.606;8.858;2022-11-15T05:13:19;95830.66;;;6.84;100.00
19023;BME280;35226;48.606;8.858;2022-11-15T05:16:03;95826.50;;;6.92;100.00
19023;BME280;35226;48.606;8.858;2022-11-15T05:18:51;95823.22;;;6.97;100.00
19023;BME280;35226;48.606;8.858;2022-11-15T05:21:36;95830.53;;;7.04;100.00
19023;BME280;35226;48.606;8.858;2022-11-15T05:24:20;95835.34;;;7.00;100.00
19023;BME280;35226;48.606;8.858;2022-11-15T05:27:03;95820.50;;;6.97;100.00
19023;BME280;35226;48.606;8.858;2022-11-15T05:29:47;95822.16;;;6.95;100.00
19023;BME280;35226;48.606;8.858;2022-11-15T05:32:31;95822.22;;;6.91;100.00
19023;BME280;35226;48.606;8.858;2022-11-15T05:35:38;95813.63;;;6.89;100.00
19023;BME280;35226;48.606;8.858;2022-11-15T05:38:23;95815.72;;;6.85;100.00
19023;BME280;35226;48.606;8.858;2022-11-15T05:41:07;95820.50;;;6.81;100.00
19023;BME280;35226;48.606;8.858;2022-11-15T05:43:52;95809.59;;;6.78;100.00
19023;BME280;35226;48.606;8.858;2022-11-15T05:46:38;95811.75;;;6.70;100.00
19023;BME280;35226;48.606;8.858;2022-11-15T05:49:28;95810.75;;;6.64;100.00
19023;BME280;35226;48.606;8.858;2022-11-15T05:52:15;95802.53;;;6.64;100.00
19023;BME280;35226;48.606;8.858;2022-11-15T05:55:01;95806.53;;;6.59;100.00
19023;BME280;35226;48.606;8.858;2022-11-15T05:57:46;95815.53;;;6.60;100.00
19023;BME280;35226;48.606;8.858;2022-11-15T06:00:30;95821.56;;;6.55;100.00
19023;BME280;35226;48.606;8.858;2022-11-15T06:03:13;95805.09;;;6.55;100.00
19023;BME280;35226;48.606;8.858;2022-11-15T06:05:58;95805.75;;;6.59;100.00
19023;BME280;35226;48.606;8.858;2022-11-15T06:08:42;95810.13;;;6.56;100.00
19023;BME280;35226;48.606;8.858;2022-11-15T06:11:26;95809.03;;;6.54;100.00
19023;BME280;35226;48.606;8.858;2022-11-15T06:14:10;95811.09;;;6.50;100.00
19023;BME280;35226;48.606;8.858;2022-11-15T06:16:54;95811.50;;;6.48;100.00
19023;BME280;35226;48.606;8.858;2022-11-15T06:19:38;95813.81;;;6.50;100.00
19023;BME280;35226;48.606;8.858;2022-11-15T06:22:22;95824.81;;;6.50;100.00
19023;BME280;35226;48.606;8.858;2022-11-15T06:25:06;95819.06;;;6.44;100.00
19023;BME280;35226;48.606;8.858;2022-11-15T06:27:54;95822.59;;;6.45;100.00
19023;BME280;35226;48.606;8.858;2022-11-15T06:30:38;95821.03;;;6.44;100.00
19023;BME280;35226;48.606;8.858;2022-11-15T06:33:22;95818.38;;;6.40;100.00
19023;BME280;35226;48.606;8.858;2022-11-15T06:36:09;95818.78;;;6.39;100.00
19023;BME280;35226;48.606;8.858;2022-11-15T06:38:53;95837.22;;;6.38;100.00
19023;BME280;35226;48.606;8.858;2022-11-15T06:41:37;95829.94;;;6.31;100.00
19023;BME280;35226;48.606;8.858;2022-11-15T06:44:21;95834.22;;;6.32;100.00
19023;BME280;35226;48.606;8.858;2022-11-15T06:47:05;95833.44;;;6.32;100.00
19023;BME280;35226;48.606;8.858;2022-11-15T06:49:49;95836.44;;;6.38;100.00
19023;BME280;35226;48.606;8.858;2022-11-15T06:52:33;95832.25;;;6.33;100.00
19023;BME280;35226;48.606;8.858;2022-11-15T06:55:17;95837.16;;;6.42;100.00
19023;BME280;35226;48.606;8.858;2022-11-15T06:58:01;95843.06;;;6.40;100.00
19023;BME280;35226;48.606;8.858;2022-11-15T07:00:45;95845.31;;;6.45;100.00
19023;BME280;35226;48.606;8.858;2022-11-15T07:03:28;95843.66;;;6.48;100.00
19023;BME280;35226;48.606;8.858;2022-11-15T07:06:12;95830.28;;;6.50;100.00
19023;BME280;35226;48.606;8.858;2022-11-15T07:08:56;95837.22;;;6.38;100.00
19023;BME280;35226;48.606;8.858;2022-11-15T07:11:40;95836.19;;;6.48;100.00
19023;BME280;35226;48.606;8.858;2022-11-15T07:14:24;95838.88;;;6.52;100.00
19023;BME280;35226;48.606;8.858;2022-11-15T07:17:08;95834.59;;;6.51;100.00
19023;BME280;35226;48.606;8.858;2022-11-15T07:19:52;95834.50;;;6.54;100.00
19023;BME280;35226;48.606;8.858;2022-11-15T07:22:36;95828.25;;;6.54;100.00
19023;BME280;35226;48.606;8.858;2022-11-15T07:25:20;95831.25;;;6.59;100.00
19023;BME280;35226;48.606;8.858;2022-11-15T07:28:04;95829.53;;;6.65;100.00
19023;BME280;35226;48.606;8.858;2022-11-15T07:30:48;95830.63;;;6.68;100.00
19023;BME280;35226;48.606;8.858;2022-11-15T07:33:32;95819.81;;;6.77;100.00
19023;BME280;35226;48.606;8.858;2022-11-15T07:36:16;95820.34;;;6.72;100.00
19023;BME280;35226;48.606;8.858;2022-11-15T07:39:00;95818.13;;;6.83;100.00
19023;BME280;35226;48.606;8.858;2022-11-15T07:41:45;95815.09;;;6.78;100.00
19023;BME280;35226;48.606;8.858;2022-11-15T07:44:31;95821.63;;;6.84;100.00
19023;BME280;35226;48.606;8.858;2022-11-15T07:47:15;95823.97;;;6.85;100.00
19023;BME280;35226;48.606;8.858;2022-11-15T07:49:59;95824.03;;;6.82;100.00
19023;BME280;35226;48.606;8.858;2022-11-15T07:52:44;95825.03;;;6.88;100.00
19023;BME280;35226;48.606;8.858;2022-11-15T07:55:28;95817.50;;;6.92;100.00
19023;BME280;35226;48.606;8.858;2022-11-15T07:58:13;95816.13;;;7.00;100.00
19023;BME280;35226;48.606;8.858;2022-11-15T08:00:57;95816.47;;;7.02;100.00
19023;BME280;35226;48.606;8.858;2022-11-15T08:03:41;95819.34;;;7.11;100.00
19023;BME280;35226;48.606;8.858;2022-11-15T08:06:25;95806.97;;;7.19;100.00
19023;BME280;35226;48.606;8.858;2022-11-15T08:09:09;95816.00;;;7.20;100.00
19023;BME280;35226;48.606;8.858;2022-11-15T08:11:53;95818.53;;;7.27;100.00
19023;BME280;35226;48.606;8.858;2022-11-15T08:14:37;95818.25;;;7.37;100.00
19023;BME280;35226;48.606;8.858;2022-11-15T08:17:23;95821.28;;;7.56;100.00
19023;BME280;35226;48.606;8.858;2022-11-15T08:20:07;95817.59;;;7.75;100.00
19023;BME280;35226;48.606;8.858;2022-11-15T08:22:51;95818.19;;;7.83;100.00
19023;BME280;35226;48.606;8.858;2022-11-15T08:25:36;95817.84;;;7.93;100.00
19023;BME280;35226;48.606;8.858;2022-11-15T08:28:20;95812.59;;;7.99;100.00
19023;BME280;35226;48.606;8.858;2022-11-15T08:31:04;95804.91;;;8.19;100.00
19023;BME280;35226;48.606;8.858;2022-11-15T08:33:49;95809.13;;;8.36;100.00
19023;BME280;35226;48.606;8.858;2022-11-15T08:36:32;95812.84;;;8.42;100.00
19023;BME280;35226;48.606;8.858;2022-11-15T08:39:16;95808.78;;;8.47;100.00
19023;BME280;35226;48.606;8.858;2022-11-15T08:42:00;95800.53;;;8.47;100.00
19023;BME280;35226;48.606;8.858;2022-11-15T08:44:44;95793.72;;;8.51;100.00
19023;BME280;35226;48.606;8.858;2022-11-15T08:47:28;95782.22;;;8.53;100.00
19023;BME280;35226;48.606;8.858;2022-11-15T08:50:14;95783.44;;;8.65;100.00
19023;BME280;35226;48.606;8.858;2022-11-15T08:53:04;95778.25;;;8.67;100.00
19023;BME280;35226;48.606;8.858;2022-11-15T08:55:48;95776.94;;;8.71;100.00
19023;BME280;35226;48.606;8.858;2022-11-15T08:58:32;95773.28;;;8.74;100.00
19023;BME280;35226;48.606;8.858;2022-11-15T09:01:18;95774.66;;;8.91;100.00
19023;BME280;35226;48.606;8.858;2022-11-15T09:04:03;95776.75;;;9.00;100.00
19023;BME280;35226;48.606;8.858;2022-11-15T09:06:47;95778.69;;;9.12;100.00
19023;BME280;35226;48.606;8.858;2022-11-15T09:09:31;95773.94;;;9.13;100.00
19023;BME280;35226;48.606;8.858;2022-11-15T09:12:15;95774.72;;;9.13;100.00
19023;BME280;35226;48.606;8.858;2022-11-15T09:14:59;95779.00;;;9.14;100.00
19023;BME280;35226;48.606;8.858;2022-11-15T09:17:43;95769.41;;;9.19;100.00
19023;BME280;35226;48.606;8.858;2022-11-15T09:20:27;95765.19;;;9.27;100.00
19023;BME280;35226;48.606;8.858;2022-11-15T09:23:11;95767.06;;;9.30;100.00
19023;BME280;35226;48.606;8.858;2022-11-15T09:26:00;95762.41;;;9.71;100.00
19023;BME280;35226;48.606;8.858;2022-11-15T09:28:45;95770.44;;;9.78;100.00
19023;BME280;35226;48.606;8.858;2022-11-15T09:31:29;95765.63;;;9.69;100.00
19023;BME280;35226;48.606;8.858;2022-11-15T09:34:15;95758.19;;;9.79;100.00
19023;BME280;35226;48.606;8.858;2022-11-15T09:36:59;95758.63;;;9.77;100.00
19023;BME280;35226;48.606;8.858;2022-11-15T09:39:43;95752.50;;;9.82;100.00
19023;BME280;35226;48.606;8.858;2022-11-15T09:45:31;95757.88;;;10.08;100.00
19023;BME280;35226;48.606;8.858;2022-11-15T09:48:49;95747.09;;;10.00;100.00
19023;BME280;35226;48.606;8.858;2022-11-15T09:51:40;95751.22;;;10.27;100.00
19023;BME280;35226;48.606;8.858;2022-11-15T09:56:40;95748.44;;;10.18;100.00
19023;BME280;35226;48.606;8.858;2022-11-15T10:04:36;95740.81;;;10.40;100.00
19023;BME280;35226;48.606;8.858;2022-11-15T10:10:14;95730.88;;;10.52;100.00
19023;BME280;35226;48.606;8.858;2022-11-15T10:12:45;95729.78;;;10.40;100.00
19023;BME280;35226;48.606;8.858;2022-11-15T10:15:14;95736.13;;;10.59;100.00
19023;BME280;35226;48.606;8.858;2022-11-15T10:17:52;95733.09;;;10.66;100.00
19023;BME280;35226;48.606;8.858;2022-11-15T10:20:24;95730.00;;;10.64;100.00
19023;BME280;35226;48.606;8.858;2022-11-15T10:22:56;95722.03;;;10.66;100.00
19023;BME280;35226;48.606;8.858;2022-11-15T10:25:27;95716.66;;;10.71;100.00
19023;BME280;35226;48.606;8.858;2022-11-15T10:27:58;95716.97;;;10.73;100.00
19023;BME280;35226;48.606;8.858;2022-11-15T10:30:32;95712.66;;;10.72;100.00
19023;BME280;35226;48.606;8.858;2022-11-15T10:32:57;95712.53;;;10.76;100.00
19023;BME280;35226;48.606;8.858;2022-11-15T10:35:29;95710.81;;;10.69;100.00
19023;BME280;35226;48.606;8.858;2022-11-15T10:38:06;95705.28;;;10.69;100.00
19023;BME280;35226;48.606;8.858;2022-11-15T10:40:32;95710.06;;;10.78;100.00
19023;BME280;35226;48.606;8.858;2022-11-15T10:43:17;95705.00;;;10.77;100.00
19023;BME280;35226;48.606;8.858;2022-11-15T10:45:44;95697.78;;;10.79;100.00
19023;BME280;35226;48.606;8.858;2022-11-15T10:50:46;95700.09;;;10.81;100.00
19023;BME280;35226;48.606;8.858;2022-11-15T10:53:40;95705.78;;;10.77;100.00
19023;BME280;35226;48.606;8.858;2022-11-15T10:56:07;95697.78;;;10.88;100.00
19023;BME280;35226;48.606;8.858;2022-11-15T10:58:42;95695.50;;;10.87;100.00
19023;BME280;35226;48.606;8.858;2022-11-15T11:01:16;95691.66;;;10.84;100.00
19023;BME280;35226;48.606;8.858;2022-11-15T11:03:44;95680.59;;;10.93;100.00
19023;BME280;35226;48.606;8.858;2022-11-15T11:06:15;95688.28;;;10.98;100.00
19023;BME280;35226;48.606;8.858;2022-11-15T11:09:03;95683.81;;;10.92;100.00
19023;BME280;35226;48.606;8.858;2022-11-15T11:11:46;95671.84;;;10.95;100.00
19023;BME280;35226;48.606;8.858;2022-11-15T11:14:26;95665.56;;;10.94;100.00
19023;BME280;35226;48.606;8.858;2022-11-15T11:19:46;95659.84;;;10.98;100.00
19023;BME280;35226;48.606;8.858;2022-11-15T11:22:42;95659.56;;;10.96;100.00
19023;BME280;35226;48.606;8.858;2022-11-15T11:25:26;95660.34;;;10.96;100.00
19023;BME280;35226;48.606;8.858;2022-11-15T11:33:24;95643.44;;;11.03;100.00
19023;BME280;35226;48.606;8.858;2022-11-15T11:36:26;95638.81;;;11.09;100.00
19023;BME280;35226;48.606;8.858;2022-11-15T11:39:20;95640.22;;;11.14;100.00
19023;BME280;35226;48.606;8.858;2022-11-15T11:41:56;95633.13;;;11.22;100.00
19023;BME280;35226;48.606;8.858;2022-11-15T11:44:48;95636.03;;;11.19;100.00
19023;BME280;35226;48.606;8.858;2022-11-15T11:47:24;95620.97;;;11.29;100.00
19023;BME280;35226;48.606;8.858;2022-11-15T11:49:52;95632.63;;;11.42;100.00
19023;BME280;35226;48.606;8.858;2022-11-15T11:55:11;95616.34;;;11.44;100.00
19023;BME280;35226;48.606;8.858;2022-11-15T12:00:21;95609.81;;;11.56;100.00
19023;BME280;35226;48.606;8.858;2022-11-15T12:05:43;95610.47;;;11.51;100.00
19023;BME280;35226;48.606;8.858;2022-11-15T12:08:44;95603.19;;;11.63;100.00
19023;BME280;35226;48.606;8.858;2022-11-15T12:11:19;95610.53;;;11.66;100.00
19023;BME280;35226;48.606;8.858;2022-11-15T12:13:50;95604.47;;;11.53;100.00
19023;BME280;35226;48.606;8.858;2022-11-15T12:16:29;95601.94;;;11.73;100.00
19023;BME280;35226;48.606;8.858;2022-11-15T12:19:02;95593.78;;;11.78;100.00
19023;BME280;35226;48.606;8.858;2022-11-15T12:24:53;95591.72;;;11.88;100.00
19023;BME280;35226;48.606;8.858;2022-11-15T12:27:37;95589.16;;;11.84;100.00
19023;BME280;35226;48.606;8.858;2022-11-15T12:30:18;95588.19;;;11.88;100.00
19023;BME280;35226;48.606;8.858;2022-11-15T12:33:00;95584.28;;;12.03;100.00
19023;BME280;35226;48.606;8.858;2022-11-15T12:35:38;95588.69;;;12.10;100.00
19023;BME280;35226;48.606;8.858;2022-11-15T12:38:05;95587.38;;;11.96;100.00
19023;BME280;35226;48.606;8.858;2022-11-15T12:40:38;95588.13;;;11.97;100.00
19023;BME280;35226;48.606;8.858;2022-11-15T12:43:33;95583.97;;;12.01;100.00
19023;BME280;35226;48.606;8.858;2022-11-15T12:46:02;95577.38;;;11.99;100.00
19023;BME280;35226;48.606;8.858;2022-11-15T12:48:46;95580.22;;;12.13;100.00
19023;BME280;35226;48.606;8.858;2022-11-15T12:51:12;95575.00;;;12.06;100.00
19023;BME280;35226;48.606;8.858;2022-11-15T12:53:38;95567.78;;;12.09;100.00
19023;BME280;35226;48.606;8.858;2022-11-15T12:58:47;95565.00;;;12.09;100.00
19023;BME280;35226;48.606;8.858;2022-11-15T13:06:49;95548.63;;;12.20;100.00
19023;BME280;35226;48.606;8.858;2022-11-15T13:11:59;95544.16;;;12.22;100.00
19023;BME280;35226;48.606;8.858;2022-11-15T13:14:53;95544.63;;;12.21;100.00
19023;BME280;35226;48.606;8.858;2022-11-15T13:19:46;95540.78;;;12.18;100.00
19023;BME280;35226;48.606;8.858;2022-11-15T13:22:13;95531.09;;;12.23;100.00
19023;BME280;35226;48.606;8.858;2022-11-15T13:24:59;95524.94;;;12.19;100.00
19023;BME280;35226;48.606;8.858;2022-11-15T13:27:26;95524.19;;;12.18;100.00
19023;BME280;35226;48.606;8.858;2022-11-15T13:29:52;95521.56;;;12.15;100.00
19023;BME280;35226;48.606;8.858;2022-11-15T13:32:18;95513.78;;;12.13;100.00
19023;BME280;35226;48.606;8.858;2022-11-15T13:34:49;95498.97;;;12.16;100.00
19023;BME280;35226;48.606;8.858;2022-11-15T13:39:47;95507.38;;;12.22;100.00
19023;BME280;35226;48.606;8.858;2022-11-15T13:42:18;95497.84;;;12.23;100.00
19023;BME280;35226;48.606;8.858;2022-11-15T13:44:57;95498.03;;;12.19;100.00
19023;BME280;35226;48.606;8.858;2022-11-15T13:47:26;95488.19;;;12.18;100.00
19023;BME280;35226;48.606;8.858;2022-11-15T13:49:52;95482.16;;;12.20;100.00
19023;BME280;35226;48.606;8.858;2022-11-15T13:52:18;95474.34;;;12.18;100.00
19023;BME280;35226;48.606;8.858;2022-11-15T13:54:58;95475.69;;;12.23;100.00
19023;BME280;35226;48.606;8.858;2022-11-15T13:57:28;95469.84;;;12.21;100.00
19023;BME280;35226;48.606;8.858;2022-11-15T13:59:57;95473.69;;;12.23;100.00
19023;BME280;35226;48.606;8.858;2022-11-15T14:02:27;95464.72;;;12.29;100.00
19023;BME280;35226;48.606;8.858;2022-11-15T14:05:03;95461.19;;;12.28;100.00
19023;BME280;35226;48.606;8.858;2022-11-15T14:07:38;95457.00;;;12.33;100.00
19023;BME280;35226;48.606;8.858;2022-11-15T14:10:24;95455.84;;;12.39;100.00
19023;BME280;35226;48.606;8.858;2022-11-15T14:12:51;95455.00;;;12.33;100.00
19023;BME280;35226;48.606;8.858;2022-11-15T14:15:31;95449.53;;;12.39;100.00
19023;BME280;35226;48.606;8.858;2022-11-15T14:17:57;95451.25;;;12.36;100.00
19023;BME280;35226;48.606;8.858;2022-11-15T14:20:29;95444.38;;;12.32;100.00
19023;BME280;35226;48.606;8.858;2022-11-15T14:22:59;95440.63;;;12.35;100.00
19023;BME280;35226;48.606;8.858;2022-11-15T14:25:30;95435.59;;;12.33;100.00
19023;BME280;35226;48.606;8.858;2022-11-15T14:28:16;95433.47;;;12.28;100.00
19023;BME280;35226;48.606;8.858;2022-11-15T14:30:55;95435.19;;;12.26;100.00
19023;BME280;35226;48.606;8.858;2022-11-15T14:33:33;95418.47;;;12.20;100.00
19023;BME280;35226;48.606;8.858;2022-11-15T14:38:30;95412.56;;;12.12;100.00
19023;BME280;35226;48.606;8.858;2022-11-15T14:40:56;95411.13;;;12.17;100.00
19023;BME280;35226;48.606;8.858;2022-11-15T14:43:22;95413.59;;;12.15;100.00
19023;BME280;35226;48.606;8.858;2022-11-15T14:45:48;95409.88;;;12.18;100.00
19023;BME280;35226;48.606;8.858;2022-11-15T14:48:13;95413.03;;;12.11;100.00
19023;BME280;35226;48.606;8.858;2022-11-15T14:50:39;95416.44;;;12.06;100.00
19023;BME280;35226;48.606;8.858;2022-11-15T14:53:05;95414.91;;;12.05;100.00
19023;BME280;35226;48.606;8.858;2022-11-15T14:55:33;95417.88;;;12.01;100.00
19023;BME280;35226;48.606;8.858;2022-11-15T14:58:05;95419.88;;;12.01;100.00
19023;BME280;35226;48.606;8.858;2022-11-15T15:00:34;95413.34;;;11.89;100.00
19023;BME280;35226;48.606;8.858;2022-11-15T15:03:00;95408.50;;;11.99;100.00
19023;BME280;35226;48.606;8.858;2022-11-15T15:05:35;95409.28;;;11.99;100.00
19023;BME280;35226;48.606;8.858;2022-11-15T15:08:01;95397.25;;;12.02;100.00
19023;BME280;35226;48.606;8.858;2022-11-15T15:10:32;95398.97;;;12.00;100.00
19023;BME280;35226;48.606;8.858;2022-11-15T15:12:58;95404.81;;;12.02;100.00
19023;BME280;35226;48.606;8.858;2022-11-15T15:15:26;95393.91;;;11.98;100.00
19023;BME280;35226;48.606;8.858;2022-11-15T15:17:54;95393.81;;;11.93;100.00
19023;BME280;35226;48.606;8.858;2022-11-15T15:20:20;95391.03;;;11.93;100.00
19023;BME280;35226;48.606;8.858;2022-11-15T15:22:45;95384.44;;;11.90;100.00
19023;BME280;35226;48.606;8.858;2022-11-15T15:27:45;95383.22;;;11.91;100.00
19023;BME280;35226;48.606;8.858;2022-11-15T15:30:10;95378.50;;;11.82;100.00
19023;BME280;35226;48.606;8.858;2022-11-15T15:32:36;95371.31;;;11.76;100.00
19023;BME280;35226;48.606;8.858;2022-11-15T15:35:01;95366.03;;;11.63;100.00
19023;BME280;35226;48.606;8.858;2022-11-15T15:37:27;95370.78;;;11.86;100.00
19023;BME280;35226;48.606;8.858;2022-11-15T15:39:56;95362.47;;;11.86;100.00